Terminal Aerodrome Forecast
Issued by NWS Wilmington, OH

Current Version | Previous Version | Text Only | Print | Product List | Glossary Off
Versions: 1 2 3 4 5 6 7 8 9 10 11 12 13 14 15 16 17 18 19 20 21 22 23 24

489
FTUS41 KILN 201442 AAA
TAFCVG
TAF AMD
KCVG 201442Z 2015/2118 20010KT P6SM BKN250
     FM210500 20009KT P6SM SCT250 WS020/22040KT
     FM211500 21014G22KT P6SM SCT200=

USA.gov is the U.S. government's official web portal to all federal, state and local government web resources and services.